Time;durP1;ratioP1;P1;durP2;ratioP2;P2;SDS_P1;SDS_P2;PMS_P1;PMS_P2;Temp;Humidity;BMP_temperature;BMP_pressure;BME280_temperature;BME280_humidity;BME280_pressure;Samples;Min_cycle;Max_cycle;Signal;HPM_P1;HPM_P2
2021/06/29 00:02:24;;;;;;;4.03;3.73;;;24.70;99.90;;;;;;4859425;29;20240;-80
2021/06/29 00:04:53;;;;;;;4.37;4.07;;;24.70;99.90;;;;;;4887194;29;20236;-78
2021/06/29 00:07:19;;;;;;;3.43;3.23;;;24.60;99.90;;;;;;4866696;29;20226;-78
2021/06/29 00:09:45;;;;;;;4.00;3.70;;;24.50;99.90;;;;;;4864808;29;20847;-78
2021/06/29 00:12:12;;;;;;;4.03;3.73;;;24.40;99.90;;;;;;4835803;29;20463;-78
2021/06/29 00:14:40;;;;;;;3.87;3.57;;;24.30;99.90;;;;;;4885963;29;20222;-77
2021/06/29 00:17:06;;;;;;;3.90;3.60;;;24.10;99.90;;;;;;4882520;29;20917;-78
2021/06/29 00:19:32;;;;;;;3.80;3.60;;;24.00;99.90;;;;;;4882815;29;20481;-79
2021/06/29 00:21:58;;;;;;;3.87;3.53;;;23.80;99.90;;;;;;4867945;29;20489;-79
2021/06/29 00:24:23;;;;;;;4.67;3.90;;;23.60;99.90;;;;;;4837353;29;20827;-78
2021/06/29 00:26:49;;;;;;;4.10;3.80;;;23.60;99.90;;;;;;4884001;29;20217;-78
2021/06/29 00:29:15;;;;;;;4.43;4.10;;;23.50;99.90;;;;;;4852872;29;20232;-78
2021/06/29 00:31:41;;;;;;;4.07;3.77;;;23.50;99.90;;;;;;4871663;29;20217;-78
2021/06/29 00:34:07;;;;;;;4.43;4.13;;;23.40;99.90;;;;;;4866485;29;20681;-78
2021/06/29 00:36:32;;;;;;;4.30;3.83;;;23.40;99.90;;;;;;4889188;29;20282;-78
2021/06/29 00:38:58;;;;;;;3.90;3.60;;;23.30;99.90;;;;;;4849265;29;20225;-78
2021/06/29 00:41:24;;;;;;;3.90;3.70;;;23.30;99.90;;;;;;4876549;29;20221;-78
2021/06/29 00:43:52;;;;;;;5.13;4.10;;;23.30;99.90;;;;;;4850958;29;20294;-78
2021/06/29 00:46:18;;;;;;;4.17;3.77;;;23.30;99.90;;;;;;4879010;29;20236;-78
2021/06/29 00:48:45;;;;;;;3.53;3.23;;;23.30;99.90;;;;;;4885640;29;20461;-78
2021/06/29 00:51:16;;;;;;;3.70;3.40;;;23.30;99.90;;;;;;4866235;29;20464;-78
2021/06/29 00:53:47;;;;;;;3.60;3.30;;;23.30;99.90;;;;;;4891602;29;20597;-77
2021/06/29 00:56:19;;;;;;;3.37;3.13;;;23.20;99.90;;;;;;4851098;29;21050;-78
2021/06/29 00:58:47;;;;;;;3.90;3.60;;;23.20;99.90;;;;;;4875331;29;20469;-78
2021/06/29 01:01:13;;;;;;;3.40;3.20;;;23.20;99.90;;;;;;4841701;29;20537;-78
2021/06/29 01:03:40;;;;;;;5.67;3.97;;;23.20;99.90;;;;;;4882159;29;20514;-78
2021/06/29 01:06:08;;;;;;;3.37;3.17;;;23.20;99.90;;;;;;4866880;29;20487;-78
2021/06/29 01:08:35;;;;;;;3.10;2.90;;;23.20;99.90;;;;;;4849699;29;20474;-79
2021/06/29 01:11:01;;;;;;;3.70;3.40;;;23.20;99.90;;;;;;4871723;29;20466;-78
2021/06/29 01:13:31;;;;;;;3.70;3.40;;;23.20;99.90;;;;;;4872801;29;20465;-78
2021/06/29 01:15:58;;;;;;;2.97;2.77;;;23.20;99.90;;;;;;4865550;29;20273;-78
2021/06/29 01:18:24;;;;;;;3.60;3.40;;;23.20;99.90;;;;;;4881308;29;20882;-78
2021/06/29 01:20:49;;;;;;;3.20;3.00;;;23.30;99.90;;;;;;4849622;29;20466;-78
2021/06/29 01:23:19;;;;;;;3.83;3.53;;;23.20;99.90;;;;;;4844164;29;20256;-78
2021/06/29 01:25:46;;;;;;;3.67;3.33;;;23.20;99.90;;;;;;4871230;29;20213;-78
2021/06/29 01:28:30;;;;;;;3.23;3.03;;;23.20;99.90;;;;;;4852034;29;20461;-78
2021/06/29 01:31:05;;;;;;;3.23;3.03;;;23.20;99.90;;;;;;4860656;29;20476;-78
2021/06/29 01:33:32;;;;;;;3.33;3.13;;;23.10;99.90;;;;;;4888163;29;20540;-78
2021/06/29 01:36:05;;;;;;;3.13;2.93;;;23.00;99.90;;;;;;4899294;29;20981;-78
2021/06/29 01:38:31;;;;;;;3.33;3.13;;;23.00;99.90;;;;;;4854365;29;20477;-78
2021/06/29 01:40:57;;;;;;;3.00;2.80;;;22.90;99.90;;;;;;4852128;29;20527;-78
2021/06/29 01:43:30;;;;;;;3.33;3.00;;;22.90;99.90;;;;;;4875245;29;20228;-78
2021/06/29 01:45:56;;;;;;;3.73;3.13;;;22.90;99.90;;;;;;4890041;29;20240;-78
2021/06/29 01:48:24;;;;;;;2.90;2.70;;;23.00;99.90;;;;;;4866877;29;20465;-78
2021/06/29 01:50:51;;;;;;;3.30;3.10;;;23.00;99.90;;;;;;4872819;29;20550;-78
2021/06/29 01:53:17;;;;;;;3.13;2.93;;;23.00;99.90;;;;;;4881012;29;20473;-78
2021/06/29 01:55:44;;;;;;;2.50;2.40;;;23.10;99.90;;;;;;4865151;29;20485;-78
2021/06/29 01:58:10;;;;;;;3.70;3.40;;;23.10;99.90;;;;;;4864249;29;20458;-78
2021/06/29 02:00:36;;;;;;;3.17;2.97;;;23.10;99.90;;;;;;4864980;29;20476;-77
2021/06/29 02:03:02;;;;;;;2.87;2.67;;;23.10;99.90;;;;;;4879055;29;20470;-78
2021/06/29 02:05:27;;;;;;;3.40;3.20;;;23.10;99.90;;;;;;4880015;29;20226;-78
2021/06/29 02:07:53;;;;;;;3.10;2.90;;;23.10;99.90;;;;;;4849554;29;20229;-78
2021/06/29 02:10:19;;;;;;;3.33;3.10;;;23.10;99.90;;;;;;4864779;29;20237;-79
2021/06/29 02:12:46;;;;;;;2.97;2.77;;;23.10;99.90;;;;;;4854828;29;20671;-77
2021/06/29 02:15:13;;;;;;;3.07;2.87;;;23.10;99.90;;;;;;4864227;29;20226;-78
2021/06/29 02:17:39;;;;;;;3.23;3.03;;;23.00;99.90;;;;;;4879307;29;20454;-78
2021/06/29 02:20:07;;;;;;;3.10;2.80;;;23.10;99.90;;;;;;4871648;29;20489;-78
2021/06/29 02:22:33;;;;;;;3.33;3.13;;;23.10;99.90;;;;;;4898571;29;20489;-78
2021/06/29 02:24:59;;;;;;;3.47;3.27;;;23.10;99.90;;;;;;4880820;29;20560;-77
2021/06/29 02:27:29;;;;;;;3.13;2.93;;;23.00;99.90;;;;;;4856833;29;20453;-78
2021/06/29 02:29:58;;;;;;;3.33;3.03;;;23.10;99.90;;;;;;4878864;29;20496;-77
2021/06/29 02:32:25;;;;;;;3.27;3.00;;;23.10;99.90;;;;;;4842029;29;20533;-78
2021/06/29 02:34:51;;;;;;;3.13;2.73;;;23.00;99.90;;;;;;4878774;29;21010;-78
2021/06/29 02:37:18;;;;;;;3.30;3.00;;;23.00;99.90;;;;;;4879347;29;20462;-78
2021/06/29 02:39:44;;;;;;;3.80;3.50;;;23.00;99.90;;;;;;4878541;29;20530;-78
2021/06/29 02:42:10;;;;;;;2.60;2.50;;;23.00;99.90;;;;;;4878533;29;20879;-78
2021/06/29 02:44:36;;;;;;;3.97;3.10;;;23.00;99.90;;;;;;4873801;29;20246;-79
2021/06/29 02:47:03;;;;;;;3.13;2.83;;;23.00;99.90;;;;;;4861745;29;20252;-78
2021/06/29 02:49:29;;;;;;;3.33;3.00;;;23.00;99.90;;;;;;4857729;29;20781;-78
2021/06/29 02:51:58;;;;;;;3.30;3.00;;;23.00;99.90;;;;;;4852530;29;20519;-78
2021/06/29 02:54:23;;;;;;;4.57;3.27;;;23.00;99.90;;;;;;4858239;29;20222;-79
2021/06/29 02:56:49;;;;;;;3.60;3.30;;;23.00;99.90;;;;;;4869898;29;20461;-78
2021/06/29 02:59:17;;;;;;;3.23;3.03;;;22.90;99.90;;;;;;4878564;29;20233;-78
2021/06/29 03:01:43;;;;;;;3.57;3.13;;;22.90;99.90;;;;;;4882575;29;20221;-78
2021/06/29 03:04:10;;;;;;;3.77;2.67;;;22.90;99.90;;;;;;4878107;29;20442;-78
2021/06/29 03:06:36;;;;;;;3.93;3.63;;;22.80;99.90;;;;;;4847061;29;20462;-78
2021/06/29 03:09:04;;;;;;;3.33;3.13;;;22.80;99.90;;;;;;4862225;29;20454;-78
2021/06/29 03:11:30;;;;;;;2.90;2.73;;;22.80;99.90;;;;;;4878326;29;20518;-78
2021/06/29 03:13:56;;;;;;;3.53;3.30;;;22.80;99.90;;;;;;4874084;29;20462;-78
2021/06/29 03:16:22;;;;;;;3.10;2.90;;;22.70;99.90;;;;;;4861524;29;20222;-78
2021/06/29 03:18:49;;;;;;;4.07;3.20;;;22.70;99.90;;;;;;4865975;29;20937;-78
2021/06/29 03:21:15;;;;;;;2.80;2.63;;;22.80;99.90;;;;;;4878041;29;20458;-78
2021/06/29 03:23:41;;;;;;;3.20;3.00;;;22.70;99.90;;;;;;4877465;29;20474;-78
2021/06/29 03:26:07;;;;;;;2.90;2.70;;;22.70;99.90;;;;;;4862174;29;20460;-77
2021/06/29 03:28:33;;;;;;;3.40;3.10;;;22.70;99.90;;;;;;4862366;29;20225;-79
2021/06/29 03:30:59;;;;;;;3.07;2.87;;;22.70;99.90;;;;;;4872706;29;20761;-79
2021/06/29 03:33:25;;;;;;;3.10;2.90;;;22.70;99.90;;;;;;4869382;29;20864;-78
2021/06/29 03:35:50;;;;;;;5.10;3.10;;;22.70;99.90;;;;;;4843423;29;20467;-79
2021/06/29 03:38:16;;;;;;;3.10;2.80;;;22.70;99.90;;;;;;4843732;29;20320;-78
2021/06/29 03:40:42;;;;;;;3.70;3.40;;;22.60;99.90;;;;;;4858302;29;20233;-79
2021/06/29 03:43:08;;;;;;;2.90;2.70;;;22.60;99.90;;;;;;4860796;29;20237;-78
2021/06/29 03:45:34;;;;;;;3.20;3.00;;;22.60;99.90;;;;;;4862467;29;20224;-78
2021/06/29 03:48:00;;;;;;;3.27;3.07;;;22.50;99.90;;;;;;4861241;29;20670;-77
2021/06/29 03:50:26;;;;;;;2.77;2.57;;;22.50;99.90;;;;;;4852982;29;20246;-78
2021/06/29 03:52:53;;;;;;;3.07;2.87;;;22.50;99.90;;;;;;4860422;29;20250;-78
2021/06/29 03:55:19;;;;;;;2.87;2.67;;;22.50;99.90;;;;;;4856018;29;20470;-78
2021/06/29 03:57:45;;;;;;;3.33;3.03;;;22.50;99.90;;;;;;4862212;29;20501;-78
2021/06/29 04:00:11;;;;;;;2.73;2.63;;;22.50;99.90;;;;;;4861977;29;21353;-78
2021/06/29 04:02:37;;;;;;;3.50;3.20;;;22.50;99.90;;;;;;4862515;29;20234;-79
2021/06/29 04:05:07;;;;;;;4.80;3.07;;;22.40;99.90;;;;;;4862074;29;20462;-78
2021/06/29 04:07:34;;;;;;;3.80;3.00;;;22.40;99.90;;;;;;4863713;29;20462;-78
2021/06/29 04:10:00;;;;;;;3.77;3.43;;;22.40;99.90;;;;;;4864946;29;20466;-78
2021/06/29 04:12:28;;;;;;;3.23;2.93;;;22.40;99.90;;;;;;4866101;29;20464;-77
2021/06/29 04:14:54;;;;;;;2.97;2.77;;;22.40;99.90;;;;;;4861396;29;20715;-79
2021/06/29 04:17:20;;;;;;;3.50;3.20;;;22.30;99.90;;;;;;4862904;29;20473;-79
2021/06/29 04:19:46;;;;;;;3.23;3.03;;;22.30;99.90;;;;;;4846919;29;20262;-79
2021/06/29 04:22:12;;;;;;;3.30;3.10;;;22.30;99.90;;;;;;4864349;29;20268;-78
2021/06/29 04:24:37;;;;;;;3.20;3.00;;;22.20;99.90;;;;;;4864321;29;20224;-78
2021/06/29 04:27:04;;;;;;;3.80;2.93;;;22.20;99.90;;;;;;4862241;29;20226;-78
2021/06/29 04:29:30;;;;;;;3.10;2.90;;;22.20;99.90;;;;;;4862165;29;20242;-78
2021/06/29 04:31:56;;;;;;;4.83;3.23;;;22.20;99.90;;;;;;4863609;29;20462;-78
2021/06/29 04:34:22;;;;;;;3.67;2.70;;;22.20;99.90;;;;;;4862137;29;20226;-82
2021/06/29 04:36:48;;;;;;;3.10;2.90;;;22.30;99.90;;;;;;4864639;29;20218;-79
2021/06/29 04:39:13;;;;;;;3.37;3.10;;;22.20;99.90;;;;;;4854285;29;20222;-78
2021/06/29 04:41:39;;;;;;;3.80;3.00;;;22.30;99.90;;;;;;4852463;29;20265;-78
2021/06/29 04:44:05;;;;;;;3.37;3.17;;;22.30;99.90;;;;;;4863187;29;20297;-78
2021/06/29 04:46:31;;;;;;;4.20;3.43;;;22.20;99.90;;;;;;4866231;29;20221;-78
2021/06/29 04:48:58;;;;;;;3.20;2.90;;;22.20;99.90;;;;;;4875383;29;20462;-78
2021/06/29 04:51:24;;;;;;;3.27;3.00;;;22.20;99.90;;;;;;4864131;29;20621;-78
2021/06/29 04:53:50;;;;;;;4.80;3.20;;;22.20;99.90;;;;;;4861634;29;20847;-77
2021/06/29 04:56:18;;;;;;;2.97;2.77;;;22.20;99.90;;;;;;4865378;29;20458;-78
2021/06/29 04:58:44;;;;;;;5.30;2.93;;;22.20;99.90;;;;;;4861916;29;20277;-78
2021/06/29 05:01:11;;;;;;;4.60;3.23;;;22.20;99.90;;;;;;4853471;29;20466;-78
2021/06/29 05:03:39;;;;;;;3.60;3.30;;;22.20;99.90;;;;;;4875940;29;20329;-78
2021/06/29 05:06:05;;;;;;;3.67;3.37;;;22.20;99.90;;;;;;4864710;29;20462;-78
2021/06/29 05:08:31;;;;;;;3.50;3.20;;;22.20;99.90;;;;;;4863992;29;20473;-78
2021/06/29 05:10:57;;;;;;;5.37;4.97;;;22.20;99.90;;;;;;4862224;29;20459;-78
2021/06/29 05:13:24;;;;;;;5.80;3.63;;;22.20;99.90;;;;;;4856351;29;20542;-78
2021/06/29 05:15:52;;;;;;;3.73;3.50;;;22.20;99.90;;;;;;4844083;29;20558;-78
2021/06/29 05:18:18;;;;;;;3.23;2.97;;;22.20;99.90;;;;;;4866763;29;20462;-78
2021/06/29 05:20:46;;;;;;;3.30;3.00;;;22.20;99.90;;;;;;4849140;29;20485;-80
2021/06/29 05:23:12;;;;;;;3.47;3.07;;;22.20;99.90;;;;;;4873852;29;20587;-78
2021/06/29 05:25:38;;;;;;;3.43;3.23;;;22.20;99.90;;;;;;4850333;29;20501;-78
2021/06/29 05:28:04;;;;;;;3.77;3.47;;;22.20;99.90;;;;;;4862641;29;20268;-78
2021/06/29 05:30:30;;;;;;;4.10;3.73;;;22.10;99.90;;;;;;4864104;29;20321;-77
2021/06/29 05:32:56;;;;;;;3.73;3.33;;;22.20;99.90;;;;;;4863480;29;20521;-78
2021/06/29 05:35:22;;;;;;;5.53;3.47;;;22.20;99.90;;;;;;4861807;29;20282;-78
2021/06/29 05:37:48;;;;;;;4.03;3.40;;;22.20;99.90;;;;;;4867844;29;21078;-78
2021/06/29 05:40:13;;;;;;;4.00;3.60;;;22.10;99.90;;;;;;4863356;29;20221;-78
2021/06/29 05:42:39;;;;;;;3.70;3.20;;;22.20;99.90;;;;;;4863780;29;20236;-78
2021/06/29 05:45:07;;;;;;;3.83;3.53;;;22.10;99.90;;;;;;4863933;29;20245;-78
2021/06/29 05:47:35;;;;;;;3.53;3.33;;;22.10;99.90;;;;;;4894426;29;20462;-78
2021/06/29 05:50:05;;;;;;;4.53;4.13;;;22.10;99.90;;;;;;4893237;29;20935;-78
2021/06/29 05:52:30;;;;;;;4.50;4.10;;;22.10;99.90;;;;;;4863121;29;20471;-78
2021/06/29 05:54:56;;;;;;;4.27;3.63;;;22.00;99.90;;;;;;4876134;29;20471;-78
2021/06/29 05:57:23;;;;;;;3.97;3.70;;;22.10;99.90;;;;;;4876059;29;20292;-78
2021/06/29 05:59:49;;;;;;;3.73;3.43;;;22.00;99.90;;;;;;4862714;29;20230;-77
2021/06/29 06:02:16;;;;;;;4.20;3.90;;;22.10;99.90;;;;;;4865432;29;20493;-78
2021/06/29 06:04:41;;;;;;;4.07;3.77;;;22.00;99.90;;;;;;4878240;29;20486;-78
2021/06/29 06:07:07;;;;;;;3.63;3.40;;;22.00;99.90;;;;;;4831934;29;20526;-78
2021/06/29 06:09:33;;;;;;;3.27;3.07;;;22.10;99.90;;;;;;4878714;29;20221;-78
2021/06/29 06:11:59;;;;;;;5.37;3.53;;;22.10;99.90;;;;;;4862032;29;20718;-77
2021/06/29 06:14:25;;;;;;;3.57;3.37;;;22.10;99.90;;;;;;4878153;29;20229;-78
2021/06/29 06:16:51;;;;;;;3.20;3.00;;;22.10;99.90;;;;;;4877216;29;20225;-78
2021/06/29 06:19:18;;;;;;;3.73;3.53;;;22.10;99.90;;;;;;4866647;29;20462;-78
2021/06/29 06:21:43;;;;;;;4.20;3.80;;;22.10;99.90;;;;;;4881593;29;20244;-78
2021/06/29 06:24:09;;;;;;;3.47;3.27;;;22.10;99.90;;;;;;4868279;29;20501;-77
2021/06/29 06:26:35;;;;;;;3.23;3.03;;;22.20;99.90;;;;;;4865439;29;20222;-77
2021/06/29 06:29:02;;;;;;;3.30;3.10;;;22.20;99.90;;;;;;4878300;29;20470;-78
2021/06/29 06:31:28;;;;;;;3.90;3.60;;;22.10;99.90;;;;;;4849402;29;20234;-77
2021/06/29 06:33:54;;;;;;;4.50;3.63;;;22.20;99.90;;;;;;4858855;29;20550;-78
2021/06/29 06:36:20;;;;;;;6.43;3.70;;;22.20;99.90;;;;;;4844712;29;20585;-77
2021/06/29 06:38:47;;;;;;;3.73;3.50;;;22.20;99.90;;;;;;4866040;29;20230;-80
2021/06/29 06:41:15;;;;;;;3.50;3.30;;;22.20;99.90;;;;;;4861542;29;20229;-78
2021/06/29 06:43:43;;;;;;;4.40;4.10;;;22.20;99.90;;;;;;4877892;29;20485;-78
2021/06/29 06:46:09;;;;;;;3.70;3.47;;;22.20;99.90;;;;;;4877237;29;20470;-78
2021/06/29 06:48:36;;;;;;;4.03;3.73;;;22.20;99.90;;;;;;4859786;29;20470;-78
2021/06/29 06:51:03;;;;;;;3.77;3.50;;;22.20;99.90;;;;;;4859083;29;20525;-78
2021/06/29 06:53:29;;;;;;;3.50;3.23;;;22.20;99.90;;;;;;4860401;29;20531;-78
2021/06/29 06:55:55;;;;;;;3.90;3.60;;;22.20;99.90;;;;;;4873564;29;20868;-79
2021/06/29 06:58:20;;;;;;;4.47;4.10;;;22.20;99.90;;;;;;4875772;29;20230;-79
2021/06/29 07:00:54;;;;;;;3.90;3.60;;;22.20;99.90;;;;;;4844238;29;20577;-79
2021/06/29 07:03:20;;;;;;;4.20;3.90;;;22.30;99.90;;;;;;4859332;29;20233;-77
2021/06/29 07:05:46;;;;;;;3.97;3.57;;;22.20;99.90;;;;;;4875294;29;20859;-76
2021/06/29 07:08:12;;;;;;;3.97;3.67;;;22.30;99.90;;;;;;4859846;29;20458;-79
2021/06/29 07:10:38;;;;;;;4.20;3.90;;;22.30;99.90;;;;;;4845263;29;20560;-78
2021/06/29 07:13:07;;;;;;;3.77;3.53;;;22.30;99.90;;;;;;4859961;29;20221;-77
2021/06/29 07:15:33;;;;;;;3.60;3.27;;;22.40;99.90;;;;;;4875081;29;20214;-78
2021/06/29 07:17:59;;;;;;;4.30;4.00;;;22.40;99.90;;;;;;4876597;29;20468;-77
2021/06/29 07:20:26;;;;;;;3.37;2.87;;;22.40;99.90;;;;;;4864476;29;20567;-78
2021/06/29 07:22:53;;;;;;;4.33;3.93;;;22.50;99.90;;;;;;4874095;29;20233;-78
2021/06/29 07:25:26;;;;;;;4.00;3.70;;;22.50;99.90;;;;;;4861914;29;20885;-78
2021/06/29 07:27:52;;;;;;;5.80;4.10;;;22.50;99.90;;;;;;4875579;29;20514;-78
2021/06/29 07:30:19;;;;;;;3.50;3.20;;;22.50;99.90;;;;;;4862284;29;20493;-77
2021/06/29 07:32:44;;;;;;;6.30;3.80;;;22.60;99.90;;;;;;4861316;29;20590;-78
2021/06/29 07:35:12;;;;;;;3.53;3.23;;;22.60;99.90;;;;;;4867953;29;20553;-78
2021/06/29 07:37:38;;;;;;;4.50;4.10;;;22.60;99.90;;;;;;4873157;29;20690;-78
2021/06/29 07:40:13;;;;;;;6.83;5.30;;;22.70;99.90;;;;;;4872014;29;20473;-78
2021/06/29 07:42:39;;;;;;;3.93;3.63;;;22.70;99.90;;;;;;4859476;29;20240;-78
2021/06/29 07:45:06;;;;;;;3.30;3.10;;;22.70;99.90;;;;;;4860460;29;20466;-78
2021/06/29 07:47:33;;;;;;;4.27;3.87;;;22.80;99.90;;;;;;4877463;29;20226;-78
2021/06/29 07:49:59;;;;;;;4.00;3.70;;;22.80;99.90;;;;;;4860701;29;20486;-78
2021/06/29 07:52:25;;;;;;;3.73;3.43;;;22.90;99.90;;;;;;4854839;29;20458;-78
2021/06/29 07:54:51;;;;;;;4.03;3.73;;;22.90;99.90;;;;;;4874419;29;20553;-78
2021/06/29 07:57:19;;;;;;;3.40;3.20;;;22.90;99.90;;;;;;4874677;29;20618;-78
2021/06/29 07:59:45;;;;;;;3.77;3.47;;;22.90;99.90;;;;;;4873293;29;20233;-78
2021/06/29 08:02:10;;;;;;;3.67;3.37;;;22.90;99.90;;;;;;4861828;29;20469;-79
2021/06/29 08:04:37;;;;;;;3.87;3.57;;;23.00;99.90;;;;;;4849517;29;20603;-78
2021/06/29 08:07:03;;;;;;;4.00;3.43;;;23.00;99.90;;;;;;4859331;29;20225;-78
2021/06/29 08:09:29;;;;;;;3.10;2.90;;;23.00;99.90;;;;;;4855748;29;20458;-78
2021/06/29 08:11:55;;;;;;;2.93;2.73;;;23.10;99.90;;;;;;4852095;29;20611;-78
2021/06/29 08:14:21;;;;;;;3.37;3.17;;;23.10;99.90;;;;;;4874962;29;20549;-78
2021/06/29 08:16:47;;;;;;;3.30;3.00;;;23.10;99.90;;;;;;4864945;29;20642;-78
2021/06/29 08:19:13;;;;;;;4.23;3.60;;;23.10;99.90;;;;;;4860415;29;20229;-78
2021/06/29 08:21:39;;;;;;;3.13;2.93;;;23.10;99.90;;;;;;4861468;29;20465;-79
2021/06/29 08:24:06;;;;;;;3.67;3.37;;;23.20;99.90;;;;;;4857032;29;20790;-78
2021/06/29 08:26:32;;;;;;;3.73;3.07;;;23.30;99.90;;;;;;4858398;29;20541;-78
2021/06/29 08:28:57;;;;;;;4.20;3.30;;;23.30;99.90;;;;;;4850080;29;20565;-78
2021/06/29 08:31:24;;;;;;;3.40;3.20;;;23.30;99.90;;;;;;4876332;29;20229;-78
2021/06/29 08:33:53;;;;;;;4.03;3.50;;;23.40;99.90;;;;;;4874957;29;20225;-78
2021/06/29 08:36:20;;;;;;;3.20;3.00;;;23.40;99.90;;;;;;4876128;29;20453;-78
2021/06/29 08:38:47;;;;;;;2.77;2.67;;;23.40;99.90;;;;;;4860277;29;20470;-78
2021/06/29 08:41:14;;;;;;;3.20;3.00;;;23.40;99.90;;;;;;4860212;29;20482;-78
2021/06/29 08:43:40;;;;;;;3.40;3.20;;;23.40;99.90;;;;;;4876666;29;20525;-79
2021/06/29 08:46:09;;;;;;;3.00;2.80;;;23.40;99.90;;;;;;4872184;29;20459;-78
2021/06/29 08:48:37;;;;;;;4.50;3.70;;;23.50;99.90;;;;;;4873047;29;20465;-78
2021/06/29 08:51:07;;;;;;;3.20;2.97;;;23.50;99.90;;;;;;4857945;29;20568;-78
2021/06/29 08:53:34;;;;;;;3.70;3.40;;;23.60;99.90;;;;;;4859132;29;20466;-78
2021/06/29 08:56:01;;;;;;;3.60;3.30;;;23.70;99.90;;;;;;4866936;29;20462;-78
2021/06/29 08:58:31;;;;;;;4.30;3.80;;;23.70;99.90;;;;;;4868081;29;20459;-78
2021/06/29 09:00:59;;;;;;;4.00;3.70;;;23.80;99.90;;;;;;4853496;29;20558;-78
2021/06/29 09:03:25;;;;;;;3.63;3.33;;;23.80;99.90;;;;;;4858517;29;20542;-78
2021/06/29 09:05:53;;;;;;;3.23;3.03;;;23.80;99.90;;;;;;4873344;29;20565;-78
2021/06/29 09:08:21;;;;;;;3.83;3.27;;;23.90;99.90;;;;;;4872907;29;20323;-78
2021/06/29 09:11:16;;;;;;;3.37;3.17;;;23.90;99.90;;;;;;4870583;29;20517;-79
2021/06/29 09:14:27;;;;;;;3.07;2.87;;;24.10;99.90;;;;;;4862872;29;20528;-78
2021/06/29 09:16:52;;;;;;;3.53;3.30;;;24.20;99.90;;;;;;4755554;30;20464;-78
2021/06/29 09:19:35;;;;;;;3.47;3.13;;;24.30;99.90;;;;;;4777813;30;20940;-78
2021/06/29 09:22:26;;;;;;;3.20;3.00;;;24.30;99.90;;;;;;4827556;29;20243;-78
2021/06/29 09:24:52;;;;;;;2.60;2.50;;;24.40;99.90;;;;;;4876526;29;20989;-80
2021/06/29 09:27:41;;;;;;;2.77;2.57;;;24.50;99.90;;;;;;4859689;29;20533;-78
2021/06/29 09:30:27;;;;;;;3.13;2.93;;;24.70;99.90;;;;;;4875248;29;20458;-79
2021/06/29 09:32:57;;;;;;;3.50;3.20;;;24.90;99.90;;;;;;4833017;29;20898;-78
2021/06/29 09:35:24;;;;;;;3.30;3.03;;;25.00;99.90;;;;;;4857908;29;20608;-79
2021/06/29 09:37:50;;;;;;;3.07;2.87;;;25.10;99.90;;;;;;4857338;29;20560;-79
2021/06/29 09:40:16;;;;;;;3.57;3.20;;;25.20;99.90;;;;;;4863084;29;20586;-78
2021/06/29 09:42:42;;;;;;;3.37;3.17;;;25.30;99.90;;;;;;4845465;29;20229;-79
2021/06/29 09:45:30;;;;;;;3.20;2.97;;;25.40;99.90;;;;;;4853388;29;20492;-78
2021/06/29 09:47:56;;;;;;;2.97;2.77;;;25.50;99.90;;;;;;4841238;29;20241;-79
2021/06/29 09:50:45;;;;;;;5.70;3.23;;;25.60;99.90;;;;;;4836832;29;21770;-78
2021/06/29 09:53:31;;;;;;;3.10;2.60;;;25.70;99.90;;;;;;4852006;29;20454;-78
2021/06/29 09:55:59;;;;;;;2.20;2.10;;;25.80;99.90;;;;;;4845878;29;20466;-78
2021/06/29 09:58:33;;;;;;;2.53;2.33;;;25.80;99.90;;;;;;4851233;29;20466;-79
2021/06/29 10:01:00;;;;;;;2.57;2.43;;;25.80;99.90;;;;;;4860935;29;20501;-78
2021/06/29 10:03:27;;;;;;;2.47;2.37;;;25.80;99.90;;;;;;4874672;29;20482;-78
2021/06/29 10:05:55;;;;;;;2.63;2.53;;;26.00;99.90;;;;;;4858008;29;20466;-79
2021/06/29 10:08:27;;;;;;;2.23;2.13;;;26.10;99.90;;;;;;4867012;29;20451;-78
2021/06/29 10:11:24;;;;;;;2.87;2.67;;;26.20;99.90;;;;;;4870470;29;20474;-80
2021/06/29 10:13:51;;;;;;;2.60;2.37;;;26.30;99.90;;;;;;4862403;29;20496;-80
2021/06/29 10:16:22;;;;;;;2.57;2.20;;;26.30;99.90;;;;;;4873662;29;20450;-79
2021/06/29 10:21:23;;;;;;;3.37;2.90;;;26.70;99.90;;;;;;4858802;29;20473;-78
2021/06/29 10:23:56;;;;;;;2.40;2.20;;;26.80;99.90;;;;;;4838876;29;20486;-79
2021/06/29 10:26:25;;;;;;;2.60;2.50;;;26.80;99.60;;;;;;4855380;29;20466;-78
2021/06/29 10:28:52;;;;;;;2.97;2.77;;;26.80;99.90;;;;;;4849436;29;20550;-78
2021/06/29 10:31:30;;;;;;;2.57;2.37;;;26.80;99.70;;;;;;4865919;29;20470;-78
2021/06/29 10:34:10;;;;;;;2.70;2.50;;;26.90;99.60;;;;;;4858417;29;20472;-79
2021/06/29 10:36:58;;;;;;;2.27;2.17;;;27.10;99.10;;;;;;4841705;29;20511;-78
2021/06/29 10:39:38;;;;;;;3.90;2.70;;;27.20;99.10;;;;;;4874387;29;20562;-78
2021/06/29 10:42:08;;;;;;;2.17;2.07;;;27.20;99.00;;;;;;4834936;29;20482;-78
2021/06/29 10:44:39;;;;;;;2.30;2.10;;;27.20;99.10;;;;;;4856792;29;20990;-78
2021/06/29 10:47:28;;;;;;;2.23;2.13;;;27.30;99.00;;;;;;4871211;29;20481;-78
2021/06/29 10:49:57;;;;;;;2.47;2.37;;;27.40;98.90;;;;;;4855333;29;20989;-78
2021/06/29 10:52:23;;;;;;;2.57;2.47;;;27.60;98.40;;;;;;4868101;29;20461;-78
2021/06/29 10:54:50;;;;;;;3.80;2.53;;;27.80;98.00;;;;;;4854806;29;20466;-78
2021/06/29 10:57:19;;;;;;;3.10;2.90;;;28.10;97.80;;;;;;4857014;29;20465;-78
2021/06/29 10:59:51;;;;;;;2.40;2.20;;;28.20;97.90;;;;;;4857140;29;20473;-78
2021/06/29 11:02:30;;;;;;;2.67;2.53;;;28.20;97.60;;;;;;4871099;29;20482;-78
2021/06/29 11:05:01;;;;;;;2.43;2.33;;;28.10;97.40;;;;;;4856018;29;20596;-78
2021/06/29 11:07:27;;;;;;;3.00;2.70;;;28.00;97.60;;;;;;4855632;29;20518;-78
2021/06/29 11:09:57;;;;;;;2.17;2.07;;;28.10;98.00;;;;;;4858419;29;20214;-78
2021/06/29 11:12:24;;;;;;;2.70;2.50;;;28.10;97.80;;;;;;4867447;29;20466;-78
2021/06/29 11:14:52;;;;;;;4.50;2.37;;;28.10;97.70;;;;;;4874403;29;20240;-78
2021/06/29 11:17:22;;;;;;;2.60;2.40;;;28.10;97.60;;;;;;4872827;29;20889;-78
2021/06/29 11:20:00;;;;;;;3.70;2.23;;;28.30;97.10;;;;;;4861927;29;20938;-78
2021/06/29 11:23:05;;;;;;;2.37;2.20;;;28.50;97.10;;;;;;4857386;29;20535;-78
2021/06/29 11:25:51;;;;;;;2.50;2.40;;;28.70;96.90;;;;;;4864584;29;20570;-78
2021/06/29 11:28:33;;;;;;;2.38;2.20;;;28.70;96.30;;;;;;4864442;29;20268;-78
2021/06/29 11:31:22;;;;;;;2.10;2.00;;;28.90;96.20;;;;;;4868374;29;20220;-78
2021/06/29 11:34:07;;;;;;;2.10;2.00;;;29.00;96.30;;;;;;4832438;29;20240;-78
2021/06/29 11:36:36;;;;;;;2.67;2.47;;;29.00;96.10;;;;;;4863493;29;20754;-78
2021/06/29 11:39:02;;;;;;;2.10;2.00;;;29.00;95.70;;;;;;4877780;29;20249;-78
2021/06/29 11:41:36;;;;;;;2.67;1.98;;;29.00;95.60;;;;;;4859096;29;20250;-78
2021/06/29 11:44:08;;;;;;;2.30;2.20;;;29.00;95.80;;;;;;4863645;29;20229;-78
2021/06/29 11:46:52;;;;;;;2.08;1.98;;;29.10;95.80;;;;;;4871846;29;20225;-77
2021/06/29 11:49:43;;;;;;;2.33;2.22;;;29.10;95.50;;;;;;4856774;29;20233;-78
2021/06/29 11:52:15;;;;;;;2.50;2.25;;;29.10;95.20;;;;;;4844910;29;20234;-78
2021/06/29 11:54:53;;;;;;;2.20;2.10;;;28.90;94.60;;;;;;4863984;29;20230;-78
2021/06/29 11:57:19;;;;;;;2.20;2.10;;;29.00;95.10;;;;;;4856103;29;20225;-78
2021/06/29 11:59:45;;;;;;;2.75;2.55;;;29.10;94.20;;;;;;4866236;29;20225;-78
2021/06/29 12:02:19;;;;;;;2.47;2.38;;;29.20;94.30;;;;;;4884661;29;20247;-78
2021/06/29 12:05:13;;;;;;;1.98;1.88;;;29.30;94.10;;;;;;4865375;29;20221;-77
2021/06/29 12:08:04;;;;;;;2.50;2.40;;;29.40;93.90;;;;;;4833725;29;20682;-78
2021/06/29 12:10:50;;;;;;;2.45;2.35;;;29.50;93.50;;;;;;4883641;29;20224;-78
2021/06/29 12:13:25;;;;;;;2.15;2.05;;;29.50;93.50;;;;;;4873524;29;20599;-78
2021/06/29 12:15:53;;;;;;;2.58;2.38;;;29.50;93.20;;;;;;4862362;29;20584;-78
2021/06/29 12:18:21;;;;;;;2.20;2.10;;;29.50;93.00;;;;;;4846880;29;20265;-78
2021/06/29 12:20:51;;;;;;;2.30;2.20;;;29.50;92.60;;;;;;4865264;29;20229;-78
2021/06/29 12:23:21;;;;;;;1.83;1.73;;;29.40;92.60;;;;;;4880349;29;20261;-78
2021/06/29 12:25:49;;;;;;;2.08;1.98;;;29.40;92.60;;;;;;4870289;29;20726;-78
2021/06/29 12:28:18;;;;;;;5.93;2.50;;;29.40;92.70;;;;;;4864338;29;20224;-78
2021/06/29 12:30:53;;;;;;;2.78;1.90;;;29.30;92.50;;;;;;4849968;29;20268;-78
2021/06/29 12:33:23;;;;;;;2.22;2.03;;;29.30;92.30;;;;;;4873549;29;20251;-78
2021/06/29 12:35:53;;;;;;;3.35;2.05;;;29.20;92.20;;;;;;4847864;29;20244;-78
2021/06/29 12:38:21;;;;;;;2.17;2.08;;;29.20;92.00;;;;;;4864756;29;20236;-78
2021/06/29 12:40:54;;;;;;;2.42;2.17;;;29.20;92.10;;;;;;4864609;29;20233;-77
2021/06/29 12:43:53;;;;;;;2.03;1.92;;;29.10;92.40;;;;;;4850294;29;20320;-78
2021/06/29 12:46:25;;;;;;;2.08;1.98;;;29.10;92.40;;;;;;4833923;29;20758;-78
2021/06/29 12:49:09;;;;;;;2.47;2.38;;;29.10;92.50;;;;;;4879776;29;20225;-78
2021/06/29 12:51:43;;;;;;;2.08;1.98;;;29.10;92.60;;;;;;4880227;29;20297;-78
2021/06/29 12:54:11;;;;;;;2.53;2.40;;;29.00;92.30;;;;;;4854078;29;20241;-78
2021/06/29 12:56:51;;;;;;;2.70;2.50;;;29.00;92.00;;;;;;4858839;29;20229;-78
2021/06/29 12:59:24;;;;;;;2.20;2.10;;;28.90;92.40;;;;;;4863656;29;20237;-78
2021/06/29 13:01:55;;;;;;;2.78;2.58;;;28.90;92.30;;;;;;4872572;29;20690;-78